Francisco Oliveira

Olheiro-Chefe - Moreirense
3 Fev 2028
Quinta-feira
Processo

Personalidade

Adaptabilidade (11) Ambição (5) Controvérsia (13) Lealdade (19) Pressão (4) Profissionalismo (5) Espírito Esportivo (7) Temperamento (2)

Perfil

Estilo de Treinamento Democrático
Licença Continental B
Determinação 4
Gestão de Pessoas 12
Motivação 7
Disciplina 12
Satisfação no Trabalho
100%
Fadiga
0%
Função Olheiro-Chefe
Salário 52.7K p/s
Contrato 14.03.2028

Desempenho

Comportamento Bom
Eficácia do Treinamento
49%
Desenvolvimento do Jogador
30%
Prevenção de Lesões
30%
Implementação Tática
50%

Eventos Recentes

Negociação de contrato iniciada agora
Participou de uma reunião de recrutamento agora
Participou de uma reunião de recrutamento agora
Recomendou um alvo de transferência agora
Recomendou um alvo de transferência agora
Recomendou um alvo de transferência agora
Recomendou um alvo de transferência agora
Recomendou um alvo de transferência agora

Monitorando agora

206
Jogador Clube Status Habilidade Confiança Observado Última observação Último voto
Yanis da Rocha Portimonense Relatório pronto 111 / 121 76% 1 24.01.2028 -
Djé Santa Clara Ativo 120 / 114 76% 1 10.01.2028 Aprovar
Olívio Tomé Benfica Ativo 119 / 131 76% 1 06.01.2028 Aprovar
Mao Hosoya Everton Ativo 134 / 135 67% 1 01.01.2028 Aprovar
Santiago Hezze Chaves Ativo 132 / 133 62% 1 01.01.2028 Aprovar
Kerim Alajbegović Modena Ativo 133 / 145 40% 1 16.12.2027 -
Archie Gray Derby County Ativo 153 / 148 40% 1 16.12.2027 -
Kauã Elias Anderlecht Ativo 134 / 149 40% 1 11.12.2027 -
Yago Souza Atletico Goianiense Ativo 107 / 119 40% 1 10.12.2027 -
Maren Kefas Plateau United Ativo 91 / 82 40% 1 10.12.2027 -
Oscar Otero Atletico Venezuela Ativo 104 / 96 40% 1 10.12.2027 -
Mateus Mide Porto Ativo 108 / 118 40% 1 08.12.2027 -
André Miranda Porto Ativo 110 / 114 40% 1 08.12.2027 -
Josh Nichols Tranmere Rovers Ativo 123 / 125 40% 1 08.12.2027 -
Caleb Yirenkyi Coventry City Ativo 139 / 148 40% 2 06.12.2027 -
Bryan Caicedo Leones Ativo 103 / 97 40% 1 06.12.2027 -
Tiziano Cabrera Central Norte Ativo 88 / 94 40% 1 06.12.2027 -
Juan Diego Perdomo Depor Ativo 85 / 86 40% 1 30.08.2027 -
Nicolas Sport Recife Ativo 99 / 116 40% 1 30.08.2027 -
Ricky Atletico Venezuela Ativo 102 / 99 40% 1 30.08.2027 -
Mbekezeli Mbokazi Chicago Fire Ativo 131 / 139 40% 1 24.08.2027 -
Bahia Criciuma Ativo 112 / 121 40% 1 24.08.2027 -
Mauro Carrizo Atlético Tucumán Ativo 105 / 105 40% 1 24.08.2027 -
Paulité Lusitânia Lourosa Ativo 111 / 116 76% 1 16.08.2027 Aprovar
Jesús Rodríguez Como Ativo 146 / 146 40% 1 03.06.2027 -
Gianluca Prestianni Benfica Ativo 131 / 150 40% 1 03.06.2027 -
Dion Beljo Standard Liege Negociando 131 / 132 66% 1 01.06.2027 Aprovar
Tom Cannon Sheffield United Ativo 132 / 136 40% 5 30.05.2027 -
Morgan Whittaker Middlesbrough Ativo 128 / 124 40% 4 28.05.2027 -
Hazeem Bakre Crawley Town Ativo 78 / 84 40% 1 28.05.2027 -
Calum Agius Crewe Alexandra Ativo 89 / 100 40% 1 28.05.2027 -
Jason Knight Bristol City Ativo 129 / 129 40% 1 28.05.2027 -
Dango Ouattara Brentford Ativo 144 / 136 40% 7 25.05.2027 -
Patson Daka Leicester City Ativo 131 / 115 40% 5 25.05.2027 -
Mees Rijks Bristol Rovers Ativo 112 / 107 40% 2 24.05.2027 -
Christian Saydee Wigan Athletic Ativo 117 / 121 40% 1 24.05.2027 -
Gustavo Silva Vitoria Guimaraes Ativo 130 / 124 40% 9 22.05.2027 -
Elijah Adebayo Luton Town Ativo 131 / 129 40% 4 22.05.2027 -
Tommy Conway Middlesbrough Ativo 127 / 138 40% 3 21.05.2027 -
Petar Musa Adana Demirspor Ativo 139 / 146 40% 3 20.05.2027 -
Joe Gelhardt Hull City Ativo 138 / 128 40% 2 20.05.2027 -
Giacomo Raspadori Atalanta Ativo 149 / 154 40% 11 19.05.2027 -
Vinícius Lopes Santa Clara Ativo 119 / 124 40% 3 19.05.2027 -
Jayden Addai Como Ativo 129 / 131 40% 2 18.05.2027 -
Tomás Peixoto Porto Ativo 92 / 81 40% 1 18.05.2027 -
Georginio Rutter Brighton Ativo 154 / 152 40% 12 15.05.2027 -
Roberto Fernández Braga Ativo 150 / 142 40% 13 15.05.2027 Observar
Zé Leite Leixões Ativo 123 / 111 40% 5 15.05.2027 -
Callum O'Hare Sheffield United Ativo 132 / 136 40% 5 15.05.2027 -
Keinan Davis Udinese Ativo 141 / 130 40% 1 15.05.2027 -
Ollie Tanner Cardiff City Ativo 111 / 112 40% 2 14.05.2027 -
Ali Ahmed Norwich City Ativo 129 / 116 40% 2 14.05.2027 -
Oli McBurnie Hull City Ativo 132 / 134 40% 6 13.05.2027 -
Will Lankshear Middlesbrough Ativo 120 / 130 40% 7 11.05.2027 -
Quinten Timber Crystal Palace Ativo 156 / 149 40% 2 11.05.2027 -
Thiago Brentford Ativo 146 / 145 40% 3 11.05.2027 -
Kasey McAteer Ipswich Town Ativo 131 / 124 40% 2 11.05.2027 -
Stephen Humphrys Bradford City Ativo 114 / 103 40% 1 11.05.2027 -
Derensili Sanches Fernandes Huddersfield Town Ativo 131 / 126 40% 2 10.05.2027 -
André Clovis Leiria Ativo 114 / 115 40% 3 07.05.2027 -
Yousef Salech Cardiff City Ativo 128 / 135 40% 5 07.05.2027 -
Richard Koné Queens Park Rangers Ativo 126 / 131 40% 4 05.05.2027 -
Aune Heggebø West Bromwich Albion Ativo 129 / 123 40% 5 05.05.2027 -
Sam Nombe Milton Keynes Dons Ativo 107 / 108 40% 2 05.05.2027 -
Othmane Maamma Watford Ativo 121 / 128 40% 3 04.05.2027 -
Zian Flemming Ipswich Town Ativo 127 / 133 40% 2 04.05.2027 -
Lorougnon Gohi Académico de Viseu Ativo 116 / 114 40% 1 04.05.2027 -
Pau Víctor AVS Ativo 140 / 136 40% 1 03.05.2027 -
Dom Ballard Leyton Orient Ativo 121 / 128 40% 8 01.05.2027 -
Tyrese Campbell Sheffield United Ativo 130 / 129 40% 3 28.04.2027 -
Stevan Manuel Benfica Ativo 101 / 109 40% 1 27.04.2027 -
Lovro Zvonarek Estrela da Amadora Ativo 116 / 122 40% 1 27.04.2027 -
Scott Twine Bristol City Ativo 122 / 131 40% 2 24.04.2027 -
Naïs Djouahra Arouca Ativo 120 / 135 40% 1 24.04.2027 -
Lewis Morgan SuperSport United Ativo 118 / 117 40% 8 19.04.2027 -
Luis Quintero Torreense Ativo 129 / 131 40% 2 18.04.2027 -
Finn Azaz Southampton Ativo 131 / 132 40% 3 18.04.2027 -
Welington Southampton Ativo 134 / 127 40% 1 18.04.2027 -
Figueiredo Alverca Ativo 134 / 123 40% 6 15.04.2027 -
Kwadwo Baah Watford Ativo 131 / 136 40% 2 15.04.2027 -
Cian Ashford Cardiff City Ativo 116 / 114 40% 2 14.04.2027 -
Che Adams Torino Ativo 141 / 147 40% 1 09.04.2027 -
Aaron Collins Milton Keynes Dons Ativo 122 / 116 40% 1 08.04.2027 -
Kevin Fulham Ativo 145 / 158 40% 2 06.04.2027 -
Manu Pozo Torreense Ativo 115 / 132 40% 3 06.04.2027 -
Diego Rossi Monterrey Ativo 139 / 123 40% 4 06.04.2027 -
Mikkel Damsgaard Brentford Ativo 146 / 149 40% 4 05.04.2027 -
Hugo Cuypers Monterrey Ativo 130 / 139 40% 3 01.04.2027 -
Ronan Hale Gillingham Ativo 115 / 109 40% 2 01.04.2027 -
Víctor Gómez Braga Ativo 143 / 147 40% 6 29.03.2027 -
Makan Aïko Tondela Ativo 121 / 118 40% 3 29.03.2027 -
Tom Fellows Southampton Ativo 131 / 125 40% 3 28.03.2027 -
Matt O'Riley Brighton Ativo 145 / 147 40% 7 25.03.2027 -
Themba Ngcobo SuperSport United Ativo 113 / 132 40% 3 23.03.2027 -
Zeki Amdouni Burnley Ativo 139 / 124 40% 1 23.03.2027 -
Ozziel Herrera Tigres Ativo 127 / 119 40% 9 22.03.2027 -
Chuchu Ramírez Nacional Ativo 139 / 117 40% 4 22.03.2027 -
Luis Vázquez Birmingham Ativo 125 / 119 40% 3 18.03.2027 -
Jack McGlynn Stoke City Ativo 128 / 135 40% 1 16.03.2027 -
Alfonso Trezza Arouca Ativo 119 / 127 40% 1 14.03.2027 -
Moussa Dembélé CR Belouizdad Ativo 129 / 129 40% 1 11.03.2027 -
Marcelo Allende Mamelodi Sundowns Ativo 126 / 143 40% 6 10.03.2027 -
Tshepang Moremi Orlando Pirates Ativo 127 / 125 40% 4 10.03.2027 -
Duk Atlas Ativo 125 / 112 40% 1 10.03.2027 -
Evidence Makgopa Orlando Pirates Ativo 122 / 104 40% 2 07.03.2027 -
Santi García Gil Vicente Ativo 133 / 140 40% 2 06.03.2027 -
André Silva Tondela Ativo 123 / 131 40% 5 06.03.2027 -
Jhojan Julio Queretaro Ativo 126 / 118 40% 1 03.03.2027 -
Wilson Isidor Sunderland Ativo 136 / 141 40% 1 02.03.2027 -
Soufiane Rahimi Guadalajara Ativo 148 / 134 40% 1 22.02.2027 -
Romelu Castagne KV Oostende Ativo 137 / 125 40% 2 15.02.2027 -
Dawda Camara Alverca Ativo 118 / 109 40% 1 15.02.2027 -
Adriano Bertaccini Anderlecht Ativo 133 / 125 40% 1 10.02.2027 -
Lucas Di Yorio Santos Laguna Ativo 111 / 110 40% 1 09.02.2027 -
Ilyas Ansah Hull City Ativo 128 / 128 40% 1 02.02.2027 -
Adnan Courtois KV Oostende Ativo 141 / 133 40% 1 01.02.2027 -
Tariq Lamptey Queens Park Rangers Ativo 133 / 131 40% 1 25.01.2027 -
Yehor Yarmoliuk Brentford Ativo 146 / 156 40% 1 25.01.2027 -
Rômulo Tigres Ativo 130 / 137 40% 1 25.01.2027 -
Ilay Camara Anderlecht Ativo 137 / 131 40% 1 31.12.2026 -
Zak Swanson Bradford City Ativo 113 / 109 40% 1 31.12.2026 -
Mduduzi Shabalala Kaizer Chiefs Ativo 117 / 122 40% 1 30.12.2026 -
Ruben van Bommel Ferencvaros Ativo 141 / 129 40% 1 29.12.2026 -
Assane Diao Lazio Ativo 146 / 137 40% 2 28.12.2026 -
Leo Castledine Middlesbrough Ativo 120 / 139 40% 1 28.12.2026 -
Diego Lainez Tigres Ativo 127 / 115 40% 7 25.12.2026 -
Jack Rudoni Coventry City Ativo 127 / 136 40% 4 25.12.2026 -
Endrick Real Madrid Ativo 147 / 161 40% 3 24.12.2026 -
Senny Mayulu Paris Saint-Germain Ativo 137 / 154 40% 1 24.12.2026 -
Daniel Kyerewaa Reading Ativo 110 / 119 40% 1 23.12.2026 -
Amine Adli Bournemouth Ativo 145 / 135 40% 1 21.12.2026 -
Mandla Erasmus SuperSport United Ativo 110 / 131 40% 1 21.12.2026 -
Gabriel Melo Dugopolje Ativo 73 / 103 40% 2 15.12.2026 -
Leon Grgić Sturm Graz Ativo 117 / 125 40% 1 11.12.2026 -
Toni Tamarit Alverca Ativo 112 / 109 40% 2 08.12.2026 -
Yan Diomandé Real Madrid Ativo 145 / 146 40% 1 04.12.2026 -
Reda Khadra Qarabag Ativo 138 / 142 40% 1 02.12.2026 -
Jordan van der Gaag Leiria Ativo 119 / 104 40% 2 27.11.2026 -
Mateus Mané Manchester United Ativo 124 / 134 40% 4 26.11.2026 -
Noni Madueke Arsenal Ativo 149 / 164 40% 2 26.11.2026 -
Pinna Fortaleza Ativo 86 / 93 40% 1 23.11.2026 -
Jonás Luna Santa Clara Ativo 116 / 119 40% 1 22.11.2026 -
David Kalokoh Ajax Ativo 113 / 115 40% 1 22.11.2026 -
Adam Wharton Crystal Palace Ativo 146 / 162 40% 2 17.11.2026 -
Jadon Sancho Manchester United Ativo 155 / 145 40% 1 17.11.2026 -
Christian Krasnodar Ativo 145 / 123 40% 3 16.11.2026 -
Isaiah Jones Luton Town Ativo 121 / 125 40% 1 16.11.2026 -
Rocco Vata Watford Ativo 121 / 118 40% 4 15.11.2026 -
Vivaldo Semedo Watford Ativo 114 / 124 40% 1 14.11.2026 -
Mayckel Lahdo Malmo FF Ativo 125 / 112 40% 1 12.11.2026 -
Pedro Porro Tottenham Ativo 146 / 154 40% 4 10.11.2026 -
Mario Dorgeles Braga Ativo 125 / 132 40% 1 09.11.2026 -
Iwan Morgan Grimsby Town Ativo 101 / 115 40% 5 08.11.2026 -
Ezekiel Kwame Alladoh Philadelphia Union Ativo 113 / 112 40% 1 08.11.2026 -
Darren Yapi Colorado Rapids Ativo 97 / 125 40% 1 08.11.2026 -
William Gomes Porto Ativo 137 / 154 40% 1 05.11.2026 -
Félix Lemaréchal Club Brugge Ativo 137 / 145 40% 2 03.11.2026 -
Ryan Sessegnon Fulham Ativo 144 / 142 40% 2 02.11.2026 -
Stanley Mills Oxford United Ativo 125 / 120 40% 1 02.11.2026 -
Xavi Simons Tottenham Ativo 153 / 156 40% 1 01.11.2026 -
Tomás O'Connor Gimnasia y Esgrima Ativo 123 / 119 40% 3 30.10.2026 -
Benjamin Kanurić SV Ried Ativo 110 / 118 40% 1 30.10.2026 -
Soma Anzai FC Tokyo Ativo 122 / 103 40% 4 28.10.2026 -
Beni Jetour Felgueiras Ativo 85 / 90 30% 1 / 1m 28.10.2026 -
Yeremy Pino Crystal Palace Ativo 143 / 138 40% 1 28.10.2026 -
Alan Lescano Argentinos Juniors Ativo 125 / 134 40% 1 25.10.2026 -
Santiago Rodríguez Columbus Crew Ativo 133 / 133 40% 2 24.10.2026 -
Gonzalo Fulham Ativo 138 / 140 40% 1 23.10.2026 -
Carlos Vicente Birmingham Ativo 147 / 132 40% 1 23.10.2026 -
Santiago Montiel Independiente Ativo 129 / 123 40% 2 22.10.2026 -
Tristan Degreef Anderlecht Ativo 118 / 120 40% 1 22.10.2026 -
Youssoufa Moukoko FC Copenhagen Ativo 114 / 124 40% 1 21.10.2026 -
Hassan Beja AFC Leopards Ativo 82 / 77 40% 1 21.10.2026 -
Márcio Mendes Pandurii Ativo 122 / 120 40% 1 21.10.2026 -
Patrick Preciado Deportivo Pasto Ativo 104 / 118 40% 1 18.10.2026 -
Ezequiel Bullaude Santos Laguna Ativo 116 / 109 40% 1 16.10.2026 -
De Lucca Rapid Wien Ativo 122 / 113 40% 2 15.10.2026 -
Alexis Cuello San Lorenzo Ativo 125 / 120 40% 1 14.10.2026 -
Matías Fernández Independiente Rivadavia Ativo 125 / 118 40% 1 13.10.2026 -
Antonio Galeano Remo Stars Ativo 126 / 119 40% 1 07.10.2026 -
Tyler Adams Bournemouth Ativo 155 / 140 40% 3 05.10.2026 -
Joaquín Gho Argentinos Juniors Ativo 123 / 124 40% 1 05.10.2026 -
Marco Pašalić Orlando City Ativo 126 / 134 40% 1 04.10.2026 -
Anton Stach Leeds United Ativo 155 / 136 40% 1 02.10.2026 -
Johan Martínez Deportivo Cali Ativo 114 / 122 40% 1 30.09.2026 -
Callum Hudson-Odoi Nottingham Forest Ativo 144 / 142 40% 1 29.09.2026 -
Joaquín Pereyra Minnesota United FC Ativo 122 / 114 40% 1 27.09.2026 -
Riley McGree Middlesbrough Ativo 129 / 138 40% 1 26.09.2026 -
Rafik Guitane Estoril Praia Ativo 138 / 127 40% 1 26.09.2026 -
Griffin Yow New England Revolution Ativo 128 / 134 40% 1 24.09.2026 -
Victor Froholdt Porto Ativo 147 / 171 40% 1 24.09.2026 -
Lukas Zuccarello Vasco da Gama Ativo 101 / 108 40% 1 24.09.2026 -
Roméo Beney Famalicao Ativo 109 / 124 40% 1 20.09.2026 -
Arthur Maron São Paulo Ativo 95 / 95 40% 1 18.09.2026 -
Renzo Machado Liverpool Montevideo Ativo 112 / 119 40% 1 17.09.2026 -
Rodrigo González Mitre Ativo 115 / 116 40% 1 14.09.2026 -
Nico O'Reilly Manchester City Ativo 152 / 148 40% 1 14.09.2026 -
Tiago Palacios Estudiantes Ativo 128 / 134 40% 1 11.09.2026 -
Jan Carlos Ángulo Deportes Tolima Ativo 119 / 119 40% 1 11.09.2026 -
Jahkeele Marshall-Rutty New York Red Bulls Ativo 121 / 131 40% 1 11.09.2026 -
Leandro Lozano Boca Juniors Ativo 130 / 134 40% 1 11.09.2026 -
Amin Boudri Los Angeles Football Club Ativo 114 / 140 40% 1 09.09.2026 -
Marquinhos Spartak Moscow Ativo 130 / 143 40% 1 08.09.2026 -
Conrad Wallem Austria Wien Ativo 132 / 133 40% 1 08.09.2026 -
Juan Pablo Domínguez Leon Ativo 136 / 110 40% 1 07.09.2026 -
Fidel Ambríz Monterrey Ativo 137 / 131 40% 1 07.09.2026 -